PWSweather.com
Personal Weather Stations
Station Observations

LlefiĆ BadalonaES

Lat: 41.44, Lon: 2.2175

Elevation: 213.254

Station Type: oregon WMR918

http://www.estacionmeteorologicabadalonallefia.com

Latest ConditionsUpdated 10:58:24 PM GMT+01:01 Friday, Aug 29, 2014
Currently Today's Max Today's Min Today's Average
Temperature 73.9°F23.3°C 78.1°F25.6°C 72.3°F22.4°C 75.1°F23.9°C
Dew Point 69.1°F20.6°C 73.9°F23.3°C 65.5°F18.6°C 71.3°F21.8°C
Winds Calm Calm 11.4 mph E18.3 kmh E - 3.7 mph 6.0 kmh
Wind Gusts -- 17.7 mph28.5 kmh - -
Humidity 85% 94% 66% 88%
Pressure 30.03 in1016.9 mb 30.03 in1016.9 mb 29.94 in1013.9 mb -
Hour Temp Dew Point Humidity Winds Wind Gusts Pressure Precip Precip Rate Daily Precip Total
10:58 PM 73.9°F23.3°C 69.1°F20.6°C 85% Calm Calm -- 30.03 in1016.9 mb 0.00 in0.0 mm 0.00 in/hr0.0 mm/hr 0.00 in0.0 mm
10:48 PM 74.0°F23.3°C 69.2°F20.7°C 85% Calm Calm -- 30.03 in1016.9 mb 0.00 in0.0 mm 0.00 in/hr0.0 mm/hr 0.00 in0.0 mm
10:38 PM 74.1°F23.4°C 69.7°F20.9°C 86% Calm Calm -- 30.03 in1016.9 mb 0.00 in0.0 mm 0.00 in/hr0.0 mm/hr 0.00 in0.0 mm
10:28 PM 74.1°F23.4°C 69.7°F20.9°C 86% 2.3 mph NE3.7 kmh NE 4.1 mph6.6 kmh 30.03 in1016.9 mb 0.00 in0.0 mm 0.00 in/hr0.0 mm/hr 0.00 in0.0 mm
10:18 PM 74.3°F23.5°C 69.8°F21.0°C 86% Calm Calm -- 30.03 in1016.9 mb 0.00 in0.0 mm 0.00 in/hr0.0 mm/hr 0.00 in0.0 mm
10:08 PM 74.3°F23.5°C 69.8°F21.0°C 86% 4.0 mph NE6.4 kmh NE 6.4 mph10.3 kmh 30.03 in1016.9 mb 0.00 in0.0 mm 0.00 in/hr0.0 mm/hr 0.00 in0.0 mm
09:58 PM 74.3°F23.5°C 70.2°F21.2°C 87% 2.7 mph NE4.3 kmh NE 4.1 mph6.6 kmh 30.03 in1016.9 mb 0.00 in0.0 mm 0.00 in/hr0.0 mm/hr 0.00 in0.0 mm
09:48 PM 74.5°F23.6°C 70.0°F21.1°C 86% 2.8 mph E4.5 kmh E 4.1 mph6.6 kmh 30.03 in1016.9 mb 0.00 in0.0 mm 0.00 in/hr0.0 mm/hr 0.00 in0.0 mm
09:38 PM 74.5°F23.6°C 70.0°F21.1°C 86% 2.7 mph NE4.3 kmh NE 5.2 mph8.4 kmh 30.03 in1016.9 mb 0.00 in0.0 mm 0.00 in/hr0.0 mm/hr 0.00 in0.0 mm
09:28 PM 74.7°F23.7°C 70.2°F21.2°C 86% 4.4 mph N7.1 kmh N 8.7 mph14.0 kmh 30.03 in1016.9 mb 0.00 in0.0 mm 0.00 in/hr0.0 mm/hr 0.00 in0.0 mm
09:18 PM 74.7°F23.7°C 70.2°F21.2°C 86% 3.0 mph E4.8 kmh E 4.6 mph7.4 kmh 30.03 in1016.9 mb 0.00 in0.0 mm 0.00 in/hr0.0 mm/hr 0.00 in0.0 mm
09:08 PM 74.8°F23.8°C 69.7°F20.9°C 84% 6.3 mph NE10.1 kmh NE 10.5 mph16.9 kmh 30.03 in1016.9 mb 0.00 in0.0 mm 0.00 in/hr0.0 mm/hr 0.00 in0.0 mm
08:58 PM 75.0°F23.9°C 69.5°F20.8°C 83% 3.3 mph ENE5.3 kmh ENE 10.5 mph16.9 kmh 30.03 in1016.9 mb 0.00 in0.0 mm 0.00 in/hr0.0 mm/hr 0.00 in0.0 mm
08:48 PM 75.4°F24.1°C 69.9°F21.1°C 83% 4.5 mph ENE7.2 kmh ENE 8.1 mph13.0 kmh 30.03 in1016.9 mb 0.00 in0.0 mm 0.00 in/hr0.0 mm/hr 0.00 in0.0 mm
08:38 PM 75.6°F24.2°C 69.3°F20.7°C 81% 3.2 mph E5.1 kmh E 6.4 mph10.3 kmh 30.03 in1016.9 mb 0.00 in0.0 mm 0.00 in/hr0.0 mm/hr 0.00 in0.0 mm
08:28 PM 75.6°F24.2°C 68.2°F20.1°C 78% 4.5 mph NE7.2 kmh NE 8.1 mph13.0 kmh 30.03 in1016.9 mb 0.00 in0.0 mm 0.00 in/hr0.0 mm/hr 0.00 in0.0 mm
08:18 PM 75.6°F24.2°C 67.5°F19.7°C 76% 4.3 mph NE6.9 kmh NE 7.0 mph11.3 kmh 30.03 in1016.9 mb 0.00 in0.0 mm 0.00 in/hr0.0 mm/hr 0.00 in0.0 mm
08:08 PM 75.4°F24.1°C 67.7°F19.8°C 77% 5.3 mph ENE8.5 kmh ENE 11.3 mph18.2 kmh 30.00 in1015.9 mb 0.00 in0.0 mm 0.00 in/hr0.0 mm/hr 0.00 in0.0 mm
07:58 PM 75.0°F23.9°C 68.8°F20.4°C 81% 5.5 mph NE8.9 kmh NE 10.7 mph17.2 kmh 30.00 in1015.9 mb 0.00 in0.0 mm 0.00 in/hr0.0 mm/hr 0.00 in0.0 mm
07:48 PM 75.0°F23.9°C 70.2°F21.2°C 85% 6.3 mph NE10.1 kmh NE 10.5 mph16.9 kmh 30.00 in1015.9 mb 0.00 in0.0 mm 0.00 in/hr0.0 mm/hr 0.00 in0.0 mm
07:38 PM 75.2°F24.0°C 71.1°F21.7°C 87% 3.6 mph N5.8 kmh N 9.9 mph15.9 kmh 30.00 in1015.9 mb 0.00 in0.0 mm 0.00 in/hr0.0 mm/hr 0.00 in0.0 mm
07:28 PM 75.4°F24.1°C 71.2°F21.8°C 87% 4.0 mph E6.4 kmh E 7.0 mph11.3 kmh 30.00 in1015.9 mb 0.00 in0.0 mm 0.00 in/hr0.0 mm/hr 0.00 in0.0 mm
07:18 PM 75.3°F24.1°C 71.1°F21.7°C 87% 4.0 mph ENE6.4 kmh ENE 11.3 mph18.2 kmh 30.00 in1015.9 mb 0.00 in0.0 mm 0.00 in/hr0.0 mm/hr 0.00 in0.0 mm
07:08 PM 75.2°F24.0°C 71.1°F21.7°C 87% 5.4 mph NE8.7 kmh NE 8.1 mph13.0 kmh 30.00 in1015.9 mb 0.00 in0.0 mm 0.00 in/hr0.0 mm/hr 0.00 in0.0 mm
06:58 PM 75.4°F24.1°C 71.6°F22.0°C 88% 5.8 mph NE9.3 kmh NE 7.0 mph11.3 kmh 30.00 in1015.9 mb 0.00 in0.0 mm 0.00 in/hr0.0 mm/hr 0.00 in0.0 mm
06:48 PM 75.2°F24.0°C 71.4°F21.9°C 88% 7.5 mph E12.1 kmh E 13.7 mph22.0 kmh 30.00 in1015.9 mb 0.00 in0.0 mm 0.00 in/hr0.0 mm/hr 0.00 in0.0 mm
06:38 PM 75.3°F24.1°C 71.5°F21.9°C 88% 7.6 mph ENE12.2 kmh ENE 9.3 mph15.0 kmh 30.00 in1015.9 mb 0.00 in0.0 mm 0.00 in/hr0.0 mm/hr 0.00 in0.0 mm
06:28 PM 75.4°F24.1°C 71.9°F22.2°C 89% 2.7 mph E4.3 kmh E 4.1 mph6.6 kmh 30.00 in1015.9 mb 0.00 in0.0 mm 0.00 in/hr0.0 mm/hr 0.00 in0.0 mm
06:18 PM 75.4°F24.1°C 71.6°F22.0°C 88% 4.9 mph E7.9 kmh E 9.3 mph15.0 kmh 30.00 in1015.9 mb 0.00 in0.0 mm 0.00 in/hr0.0 mm/hr 0.00 in0.0 mm
06:08 PM 75.6°F24.2°C 71.8°F22.1°C 88% 4.0 mph E6.4 kmh E 7.0 mph11.3 kmh 30.00 in1015.9 mb 0.00 in0.0 mm 0.00 in/hr0.0 mm/hr 0.00 in0.0 mm
05:58 PM 75.5°F24.2°C 71.7°F22.1°C 88% 4.0 mph E6.4 kmh E 7.0 mph11.3 kmh 30.00 in1015.9 mb 0.00 in0.0 mm 0.00 in/hr0.0 mm/hr 0.00 in0.0 mm
05:48 PM 75.6°F24.2°C 71.8°F22.1°C 88% 3.8 mph E6.1 kmh E 4.6 mph7.4 kmh 30.00 in1015.9 mb 0.00 in0.0 mm 0.00 in/hr0.0 mm/hr 0.00 in0.0 mm
05:38 PM 75.4°F24.1°C 71.6°F22.0°C 88% 3.6 mph E5.8 kmh E 7.0 mph11.3 kmh 30.00 in1015.9 mb 0.00 in0.0 mm 0.00 in/hr0.0 mm/hr 0.00 in0.0 mm
05:28 PM 75.3°F24.1°C 71.5°F21.9°C 88% 3.6 mph E5.8 kmh E 7.0 mph11.3 kmh 30.00 in1015.9 mb 0.00 in0.0 mm 0.00 in/hr0.0 mm/hr 0.00 in0.0 mm
05:18 PM 75.6°F24.2°C 71.8°F22.1°C 88% 5.3 mph ESE8.5 kmh ESE 8.1 mph13.0 kmh 30.00 in1015.9 mb 0.00 in0.0 mm 0.00 in/hr0.0 mm/hr 0.00 in0.0 mm
05:08 PM 75.9°F24.4°C 71.4°F21.9°C 86% 5.4 mph SE8.7 kmh SE 8.1 mph13.0 kmh 30.00 in1015.9 mb 0.00 in0.0 mm 0.00 in/hr0.0 mm/hr 0.00 in0.0 mm
04:58 PM 75.9°F24.4°C 71.4°F21.9°C 86% 3.3 mph E5.3 kmh E 7.0 mph11.3 kmh 30.00 in1015.9 mb 0.00 in0.0 mm 0.00 in/hr0.0 mm/hr 0.00 in0.0 mm
04:48 PM 76.0°F24.4°C 72.2°F22.3°C 88% 4.0 mph SE6.4 kmh SE 7.0 mph11.3 kmh 30.00 in1015.9 mb 0.00 in0.0 mm 0.00 in/hr0.0 mm/hr 0.00 in0.0 mm
04:38 PM 75.7°F24.3°C 71.6°F22.0°C 87% 4.9 mph E7.9 kmh E 8.1 mph13.0 kmh 30.00 in1015.9 mb 0.00 in0.0 mm 0.00 in/hr0.0 mm/hr 0.00 in0.0 mm
04:28 PM 76.1°F24.5°C 71.3°F21.8°C 85% 5.6 mph E9.0 kmh E 10.7 mph17.2 kmh 30.00 in1015.9 mb 0.00 in0.0 mm 0.00 in/hr0.0 mm/hr 0.00 in0.0 mm
04:18 PM 76.3°F24.6°C 71.4°F21.9°C 85% 4.5 mph ESE7.2 kmh ESE 5.2 mph8.4 kmh 30.00 in1015.9 mb 0.00 in0.0 mm 0.00 in/hr0.0 mm/hr 0.00 in0.0 mm
04:08 PM 76.8°F24.9°C 70.9°F21.6°C 82% 4.9 mph E7.9 kmh E 8.1 mph13.0 kmh 30.00 in1015.9 mb 0.00 in0.0 mm 0.00 in/hr0.0 mm/hr 0.00 in0.0 mm
03:58 PM 77.2°F25.1°C 70.2°F21.2°C 79% 6.1 mph E9.8 kmh E 13.7 mph22.0 kmh 30.00 in1015.9 mb 0.00 in0.0 mm 0.00 in/hr0.0 mm/hr 0.00 in0.0 mm
03:48 PM 76.8°F24.9°C 69.1°F20.6°C 77% 6.2 mph E10.0 kmh E 11.3 mph18.2 kmh 30.00 in1015.9 mb 0.00 in0.0 mm 0.00 in/hr0.0 mm/hr 0.00 in0.0 mm
03:38 PM 77.1°F25.1°C 70.1°F21.2°C 79% 4.2 mph ENE6.8 kmh ENE 8.1 mph13.0 kmh 30.00 in1015.9 mb 0.00 in0.0 mm 0.00 in/hr0.0 mm/hr 0.00 in0.0 mm
03:28 PM 76.9°F24.9°C 71.0°F21.7°C 82% 3.5 mph ESE5.6 kmh ESE 9.9 mph15.9 kmh 30.03 in1016.9 mb 0.00 in0.0 mm 0.00 in/hr0.0 mm/hr 0.00 in0.0 mm
03:18 PM 76.6°F24.8°C 70.7°F21.5°C 82% 6.9 mph ESE11.1 kmh ESE 14.2 mph22.9 kmh 30.03 in1016.9 mb 0.00 in0.0 mm 0.00 in/hr0.0 mm/hr 0.00 in0.0 mm
03:08 PM 76.8°F24.9°C 69.8°F21.0°C 79% 6.7 mph ESE10.8 kmh ESE 13.1 mph21.1 kmh 30.03 in1016.9 mb 0.00 in0.0 mm 0.00 in/hr0.0 mm/hr 0.00 in0.0 mm
02:58 PM 77.2°F25.1°C 69.0°F20.6°C 76% 4.9 mph ESE7.9 kmh ESE 10.7 mph17.2 kmh 30.03 in1016.9 mb 0.00 in0.0 mm 0.00 in/hr0.0 mm/hr 0.00 in0.0 mm
02:48 PM 78.1°F25.6°C 68.7°F20.4°C 73% 4.0 mph ESE6.4 kmh ESE 13.7 mph22.0 kmh 30.03 in1016.9 mb 0.00 in0.0 mm 0.00 in/hr0.0 mm/hr 0.00 in0.0 mm
02:38 PM 77.4°F25.2°C 68.5°F20.3°C 74% 5.8 mph E9.3 kmh E 8.1 mph13.0 kmh 30.03 in1016.9 mb 0.00 in0.0 mm 0.00 in/hr0.0 mm/hr 0.00 in0.0 mm
02:28 PM 77.4°F25.2°C 68.4°F20.2°C 74% 8.2 mph NE13.2 kmh NE 13.1 mph21.1 kmh 30.03 in1016.9 mb 0.00 in0.0 mm 0.00 in/hr0.0 mm/hr 0.00 in0.0 mm
02:18 PM 77.4°F25.2°C 67.7°F19.8°C 72% 6.1 mph ESE9.8 kmh ESE 7.6 mph12.2 kmh 30.03 in1016.9 mb 0.00 in0.0 mm 0.00 in/hr0.0 mm/hr 0.00 in0.0 mm
02:08 PM 77.8°F25.4°C 65.5°F18.6°C 66% 5.6 mph ESE9.0 kmh ESE 14.2 mph22.9 kmh 30.03 in1016.9 mb 0.00 in0.0 mm 0.00 in/hr0.0 mm/hr 0.00 in0.0 mm
01:58 PM 77.6°F25.3°C 67.9°F19.9°C 72% 6.0 mph E9.7 kmh E 10.7 mph17.2 kmh 30.03 in1016.9 mb 0.00 in0.0 mm 0.00 in/hr0.0 mm/hr 0.00 in0.0 mm
01:48 PM 77.2°F25.1°C 67.9°F19.9°C 73% 5.8 mph E9.3 kmh E 8.1 mph13.0 kmh 30.03 in1016.9 mb 0.00 in0.0 mm 0.00 in/hr0.0 mm/hr 0.00 in0.0 mm
01:38 PM 77.3°F25.2°C 69.1°F20.6°C 76% 5.3 mph E8.5 kmh E 14.2 mph22.9 kmh 30.03 in1016.9 mb 0.00 in0.0 mm 0.00 in/hr0.0 mm/hr 0.00 in0.0 mm
01:28 PM 76.8°F24.9°C 69.8°F21.0°C 79% 8.2 mph ENE13.2 kmh ENE 16.6 mph26.7 kmh 30.03 in1016.9 mb 0.00 in0.0 mm 0.00 in/hr0.0 mm/hr 0.00 in0.0 mm
01:18 PM 77.5°F25.3°C 72.3°F22.4°C 84% 4.7 mph E7.6 kmh E 9.9 mph15.9 kmh 30.03 in1016.9 mb 0.00 in0.0 mm 0.00 in/hr0.0 mm/hr 0.00 in0.0 mm
01:08 PM 77.2°F25.1°C 71.6°F22.0°C 83% 6.5 mph ESE10.5 kmh ESE 13.7 mph22.0 kmh 30.03 in1016.9 mb 0.00 in0.0 mm 0.00 in/hr0.0 mm/hr 0.00 in0.0 mm
12:58 PM 77.0°F25.0°C 72.5°F22.5°C 86% 5.8 mph NE9.3 kmh NE 14.2 mph22.9 kmh 30.03 in1016.9 mb 0.00 in0.0 mm 0.00 in/hr0.0 mm/hr 0.00 in0.0 mm
12:48 PM 76.8°F24.9°C 73.3°F22.9°C 89% 5.8 mph NE9.3 kmh NE 11.3 mph18.2 kmh 30.03 in1016.9 mb 0.00 in0.0 mm 0.00 in/hr0.0 mm/hr 0.00 in0.0 mm
12:38 PM 75.9°F24.4°C 73.1°F22.8°C 91% 10.9 mph E17.5 kmh E 17.7 mph28.5 kmh 30.03 in1016.9 mb 0.00 in0.0 mm 0.00 in/hr0.0 mm/hr 0.00 in0.0 mm
12:28 PM 75.7°F24.3°C 73.5°F23.1°C 93% 7.8 mph SE12.6 kmh SE 10.5 mph16.9 kmh 30.03 in1016.9 mb 0.00 in0.0 mm 0.00 in/hr0.0 mm/hr 0.00 in0.0 mm
12:18 PM 75.6°F24.2°C 73.7°F23.2°C 94% 6.1 mph E9.8 kmh E 10.5 mph16.9 kmh 30.03 in1016.9 mb 0.00 in0.0 mm 0.00 in/hr0.0 mm/hr 0.00 in0.0 mm
12:08 PM 75.7°F24.3°C 73.9°F23.3°C 94% 6.6 mph NE10.6 kmh NE 17.1 mph27.5 kmh 30.03 in1016.9 mb 0.00 in0.0 mm 0.00 in/hr0.0 mm/hr 0.00 in0.0 mm
11:58 AM 75.4°F24.1°C 73.2°F22.9°C 93% 11.4 mph E18.3 kmh E 14.2 mph22.9 kmh 30.03 in1016.9 mb 0.00 in0.0 mm 0.00 in/hr0.0 mm/hr 0.00 in0.0 mm
11:48 AM 75.6°F24.2°C 73.7°F23.2°C 94% 7.2 mph NE11.6 kmh NE 14.2 mph22.9 kmh 30.03 in1016.9 mb 0.00 in0.0 mm 0.00 in/hr0.0 mm/hr 0.00 in0.0 mm
11:38 AM 75.7°F24.3°C 73.6°F23.1°C 93% 10.6 mph NE17.1 kmh NE 16.6 mph26.7 kmh 30.03 in1016.9 mb 0.00 in0.0 mm 0.00 in/hr0.0 mm/hr 0.00 in0.0 mm
11:28 AM 75.9°F24.4°C 73.7°F23.2°C 93% 8.0 mph NE12.9 kmh NE 7.0 mph11.3 kmh 30.03 in1016.9 mb 0.00 in0.0 mm 0.00 in/hr0.0 mm/hr 0.00 in0.0 mm
11:18 AM 75.9°F24.4°C 73.4°F23.0°C 92% 5.0 mph E8.0 kmh E 10.5 mph16.9 kmh 30.03 in1016.9 mb 0.00 in0.0 mm 0.00 in/hr0.0 mm/hr 0.00 in0.0 mm
11:08 AM 76.1°F24.5°C 73.3°F22.9°C 91% 4.1 mph SE6.6 kmh SE 7.6 mph12.2 kmh 30.03 in1016.9 mb 0.00 in0.0 mm 0.00 in/hr0.0 mm/hr 0.00 in0.0 mm
10:58 AM 76.2°F24.6°C 73.4°F23.0°C 91% 4.7 mph ESE7.6 kmh ESE 9.9 mph15.9 kmh 30.03 in1016.9 mb 0.00 in0.0 mm 0.00 in/hr0.0 mm/hr 0.00 in0.0 mm
10:48 AM 75.9°F24.4°C 73.1°F22.8°C 91% 5.9 mph SE9.5 kmh SE 9.9 mph15.9 kmh 30.03 in1016.9 mb 0.00 in0.0 mm 0.00 in/hr0.0 mm/hr 0.00 in0.0 mm
10:38 AM 75.9°F24.4°C 73.1°F22.8°C 91% 2.7 mph E4.3 kmh E 5.2 mph8.4 kmh 30.03 in1016.9 mb 0.00 in0.0 mm 0.00 in/hr0.0 mm/hr 0.00 in0.0 mm
10:28 AM 75.9°F24.4°C 72.8°F22.7°C 90% 3.2 mph NNE5.1 kmh NNE 5.2 mph8.4 kmh 30.00 in1015.9 mb 0.00 in0.0 mm 0.00 in/hr0.0 mm/hr 0.00 in0.0 mm
10:18 AM 75.9°F24.4°C 72.4°F22.4°C 89% 3.1 mph NE5.0 kmh NE 7.6 mph12.2 kmh 30.00 in1015.9 mb 0.00 in0.0 mm 0.00 in/hr0.0 mm/hr 0.00 in0.0 mm
10:08 AM 75.9°F24.4°C 72.1°F22.3°C 88% 4.1 mph NNE6.6 kmh NNE 5.2 mph8.4 kmh 30.00 in1015.9 mb 0.00 in0.0 mm 0.00 in/hr0.0 mm/hr 0.00 in0.0 mm
09:58 AM 75.9°F24.4°C 71.8°F22.1°C 87% 2.0 mph E3.2 kmh E 2.9 mph4.7 kmh 30.00 in1015.9 mb 0.00 in0.0 mm 0.00 in/hr0.0 mm/hr 0.00 in0.0 mm
09:48 AM 76.1°F24.5°C 71.3°F21.8°C 85% 4.1 mph NE6.6 kmh NE 8.1 mph13.0 kmh 30.00 in1015.9 mb 0.00 in0.0 mm 0.00 in/hr0.0 mm/hr 0.00 in0.0 mm
09:38 AM 76.4°F24.7°C 71.5°F21.9°C 85% 4.2 mph NE6.8 kmh NE 7.0 mph11.3 kmh 30.00 in1015.9 mb 0.00 in0.0 mm 0.00 in/hr0.0 mm/hr 0.00 in0.0 mm
09:28 AM 76.3°F24.6°C 72.5°F22.5°C 88% 4.3 mph NE6.9 kmh NE 6.4 mph10.3 kmh 30.00 in1015.9 mb 0.00 in0.0 mm 0.00 in/hr0.0 mm/hr 0.00 in0.0 mm
09:18 AM 76.1°F24.5°C 73.0°F22.8°C 90% Calm Calm 3.5 mph5.6 kmh 30.00 in1015.9 mb 0.00 in0.0 mm 0.00 in/hr0.0 mm/hr 0.00 in0.0 mm
09:08 AM 75.4°F24.1°C 72.2°F22.3°C 90% Calm Calm -- 30.00 in1015.9 mb 0.00 in0.0 mm 0.00 in/hr0.0 mm/hr 0.00 in0.0 mm
08:58 AM 74.8°F23.8°C 72.0°F22.2°C 91% 2.0 mph WNW3.2 kmh WNW 7.0 mph11.3 kmh 30.00 in1015.9 mb 0.00 in0.0 mm 0.00 in/hr0.0 mm/hr 0.00 in0.0 mm
08:48 AM 74.5°F23.6°C 71.7°F22.1°C 91% 3.2 mph NW5.1 kmh NW 4.6 mph7.4 kmh 30.00 in1015.9 mb 0.00 in0.0 mm 0.00 in/hr0.0 mm/hr 0.00 in0.0 mm
08:38 AM 74.1°F23.4°C 72.0°F22.2°C 93% 2.3 mph NW3.7 kmh NW 5.8 mph9.3 kmh 30.00 in1015.9 mb 0.00 in0.0 mm 0.00 in/hr0.0 mm/hr 0.00 in0.0 mm
08:28 AM 73.4°F23.0°C 71.3°F21.8°C 93% 3.8 mph NW6.1 kmh NW 7.6 mph12.2 kmh 30.00 in1015.9 mb 0.00 in0.0 mm 0.00 in/hr0.0 mm/hr 0.00 in0.0 mm
08:18 AM 73.2°F22.9°C 71.1°F21.7°C 93% 4.8 mph NW7.7 kmh NW 7.6 mph12.2 kmh 30.00 in1015.9 mb 0.00 in0.0 mm 0.00 in/hr0.0 mm/hr 0.00 in0.0 mm
08:08 AM 73.0°F22.8°C 70.9°F21.6°C 93% 3.5 mph NW5.6 kmh NW 4.6 mph7.4 kmh 30.00 in1015.9 mb 0.00 in0.0 mm 0.00 in/hr0.0 mm/hr 0.00 in0.0 mm
07:58 AM 72.9°F22.7°C 71.0°F21.7°C 94% 0.1 mph NW0.2 kmh NW 8.1 mph13.0 kmh 29.97 in1014.9 mb 0.00 in0.0 mm 0.00 in/hr0.0 mm/hr 0.00 in0.0 mm
07:48 AM 72.7°F22.6°C 70.9°F21.6°C 94% 4.4 mph NW7.1 kmh NW 5.2 mph8.4 kmh 29.97 in1014.9 mb 0.00 in0.0 mm 0.00 in/hr0.0 mm/hr 0.00 in0.0 mm
07:38 AM 72.3°F22.4°C 70.5°F21.4°C 94% 4.1 mph WNW6.6 kmh WNW 7.0 mph11.3 kmh 29.97 in1014.9 mb 0.00 in0.0 mm 0.00 in/hr0.0 mm/hr 0.00 in0.0 mm
07:28 AM 72.3°F22.4°C 70.2°F21.2°C 93% 5.3 mph NW8.5 kmh NW 8.1 mph13.0 kmh 29.97 in1014.9 mb 0.00 in0.0 mm 0.00 in/hr0.0 mm/hr 0.00 in0.0 mm
07:18 AM 72.3°F22.4°C 70.2°F21.2°C 93% 4.8 mph NW7.7 kmh NW 7.6 mph12.2 kmh 29.97 in1014.9 mb 0.00 in0.0 mm 0.00 in/hr0.0 mm/hr 0.00 in0.0 mm
06:58 AM 72.7°F22.6°C 70.5°F21.4°C 93% 3.2 mph NW5.1 kmh NW 8.1 mph13.0 kmh 29.97 in1014.9 mb 0.00 in0.0 mm 0.00 in/hr0.0 mm/hr 0.00 in0.0 mm
06:48 AM 72.9°F22.7°C 70.7°F21.5°C 93% 3.1 mph NW5.0 kmh NW 4.6 mph7.4 kmh 29.97 in1014.9 mb 0.00 in0.0 mm 0.00 in/hr0.0 mm/hr 0.00 in0.0 mm
06:38 AM 73.0°F22.8°C 70.6°F21.4°C 92% 3.3 mph NW5.3 kmh NW 7.0 mph11.3 kmh 29.97 in1014.9 mb 0.00 in0.0 mm 0.00 in/hr0.0 mm/hr 0.00 in0.0 mm
06:28 AM 73.4°F23.0°C 70.9°F21.6°C 92% 0.2 mph NW0.3 kmh NW 4.6 mph7.4 kmh 29.97 in1014.9 mb 0.00 in0.0 mm 0.00 in/hr0.0 mm/hr 0.00 in0.0 mm
06:18 AM 73.6°F23.1°C 71.1°F21.7°C 92% Calm Calm -- 29.97 in1014.9 mb 0.00 in0.0 mm 0.00 in/hr0.0 mm/hr 0.00 in0.0 mm
06:08 AM 73.6°F23.1°C 71.1°F21.7°C 92% Calm Calm -- 29.97 in1014.9 mb 0.00 in0.0 mm 0.00 in/hr0.0 mm/hr 0.00 in0.0 mm
05:58 AM 73.8°F23.2°C 71.3°F21.8°C 92% Calm Calm -- 29.97 in1014.9 mb 0.00 in0.0 mm 0.00 in/hr0.0 mm/hr 0.00 in0.0 mm
05:48 AM 73.8°F23.2°C 71.6°F22.0°C 93% Calm Calm -- 29.97 in1014.9 mb 0.00 in0.0 mm 0.00 in/hr0.0 mm/hr 0.00 in0.0 mm
05:38 AM 73.9°F23.3°C 71.8°F22.1°C 93% Calm Calm -- 29.97 in1014.9 mb 0.00 in0.0 mm 0.00 in/hr0.0 mm/hr 0.00 in0.0 mm
05:28 AM 73.9°F23.3°C 71.8°F22.1°C 93% Calm Calm -- 29.97 in1014.9 mb 0.00 in0.0 mm 0.00 in/hr0.0 mm/hr 0.00 in0.0 mm
05:18 AM 73.9°F23.3°C 71.8°F22.1°C 93% Calm Calm -- 29.97 in1014.9 mb 0.00 in0.0 mm 0.00 in/hr0.0 mm/hr 0.00 in0.0 mm
05:08 AM 73.9°F23.3°C 71.8°F22.1°C 93% Calm Calm 3.5 mph5.6 kmh 29.97 in1014.9 mb 0.00 in0.0 mm 0.00 in/hr0.0 mm/hr 0.00 in0.0 mm
04:58 AM 73.8°F23.2°C 71.6°F22.0°C 93% 0.1 mph N0.2 kmh N 4.6 mph7.4 kmh 29.97 in1014.9 mb 0.00 in0.0 mm 0.00 in/hr0.0 mm/hr 0.00 in0.0 mm
04:48 AM 73.8°F23.2°C 71.6°F22.0°C 93% 3.6 mph NW5.8 kmh NW 6.4 mph10.3 kmh 29.97 in1014.9 mb 0.00 in0.0 mm 0.00 in/hr0.0 mm/hr 0.00 in0.0 mm
04:38 AM 73.8°F23.2°C 71.6°F22.0°C 93% Calm Calm 5.2 mph8.4 kmh 29.97 in1014.9 mb 0.00 in0.0 mm 0.00 in/hr0.0 mm/hr 0.00 in0.0 mm
04:28 AM 73.8°F23.2°C 71.6°F22.0°C 93% 3.6 mph NW5.8 kmh NW 7.0 mph11.3 kmh 29.94 in1013.9 mb 0.00 in0.0 mm 0.00 in/hr0.0 mm/hr 0.00 in0.0 mm
04:18 AM 73.9°F23.3°C 71.8°F22.1°C 93% Calm Calm 7.6 mph12.2 kmh 29.95 in1014.2 mb 0.00 in0.0 mm 0.00 in/hr0.0 mm/hr 0.00 in0.0 mm
04:08 AM 73.9°F23.3°C 71.8°F22.1°C 93% 3.4 mph NW5.5 kmh NW 6.4 mph10.3 kmh 29.97 in1014.9 mb 0.00 in0.0 mm 0.00 in/hr0.0 mm/hr 0.00 in0.0 mm
03:58 AM 73.9°F23.3°C 71.8°F22.1°C 93% 2.3 mph NW3.7 kmh NW 8.1 mph13.0 kmh 29.97 in1014.9 mb 0.00 in0.0 mm 0.00 in/hr0.0 mm/hr 0.00 in0.0 mm
03:48 AM 73.8°F23.2°C 71.6°F22.0°C 93% 3.3 mph WNW5.3 kmh WNW 4.6 mph7.4 kmh 29.97 in1014.9 mb 0.00 in0.0 mm 0.00 in/hr0.0 mm/hr 0.00 in0.0 mm
03:38 AM 73.9°F23.3°C 71.8°F22.1°C 93% 2.6 mph NW4.2 kmh NW 7.0 mph11.3 kmh 29.97 in1014.9 mb 0.00 in0.0 mm 0.00 in/hr0.0 mm/hr 0.00 in0.0 mm
03:28 AM 74.0°F23.3°C 71.9°F22.2°C 93% Calm Calm 4.6 mph7.4 kmh 29.97 in1014.9 mb 0.00 in0.0 mm 0.00 in/hr0.0 mm/hr 0.00 in0.0 mm
03:18 AM 74.1°F23.4°C 72.0°F22.2°C 93% Calm Calm 4.1 mph6.6 kmh 29.97 in1014.9 mb 0.00 in0.0 mm 0.00 in/hr0.0 mm/hr 0.00 in0.0 mm
03:08 AM 73.9°F23.3°C 71.8°F22.1°C 93% 0.5 mph NW0.8 kmh NW -- 29.97 in1014.9 mb 0.00 in0.0 mm 0.00 in/hr0.0 mm/hr 0.00 in0.0 mm
02:58 AM 73.8°F23.2°C 71.6°F22.0°C 93% 3.3 mph NW5.3 kmh NW 9.3 mph15.0 kmh 29.97 in1014.9 mb 0.00 in0.0 mm 0.00 in/hr0.0 mm/hr 0.00 in0.0 mm
02:48 AM 73.8°F23.2°C 71.6°F22.0°C 93% 3.4 mph NW5.5 kmh NW 4.1 mph6.6 kmh 29.98 in1015.2 mb 0.00 in0.0 mm 0.00 in/hr0.0 mm/hr 0.00 in0.0 mm
02:38 AM 73.8°F23.2°C 71.6°F22.0°C 93% Calm Calm -- 30.00 in1015.9 mb 0.00 in0.0 mm 0.00 in/hr0.0 mm/hr 0.00 in0.0 mm
02:28 AM 73.8°F23.2°C 71.9°F22.2°C 94% Calm Calm 2.9 mph4.7 kmh 30.00 in1015.9 mb 0.00 in0.0 mm 0.00 in/hr0.0 mm/hr 0.00 in0.0 mm
02:18 AM 73.8°F23.2°C 71.9°F22.2°C 94% 4.9 mph NW7.9 kmh NW 7.0 mph11.3 kmh 30.00 in1015.9 mb 0.00 in0.0 mm 0.00 in/hr0.0 mm/hr 0.00 in0.0 mm
02:08 AM 74.3°F23.5°C 72.5°F22.5°C 94% 5.8 mph NW9.3 kmh NW 10.5 mph16.9 kmh 29.97 in1014.9 mb 0.00 in0.0 mm 0.00 in/hr0.0 mm/hr 0.00 in0.0 mm
01:58 AM 75.0°F23.9°C 73.1°F22.8°C 94% 2.9 mph W4.7 kmh W 8.1 mph13.0 kmh 29.97 in1014.9 mb 0.00 in0.0 mm 0.00 in/hr0.0 mm/hr 0.00 in0.0 mm
01:48 AM 75.0°F23.9°C 73.2°F22.9°C 94% Calm Calm 2.9 mph4.7 kmh 29.97 in1014.9 mb 0.00 in0.0 mm 0.00 in/hr0.0 mm/hr 0.00 in0.0 mm
01:38 AM 75.0°F23.9°C 73.2°F22.9°C 94% Calm Calm 4.6 mph7.4 kmh 29.97 in1014.9 mb 0.00 in0.0 mm 0.00 in/hr0.0 mm/hr 0.00 in0.0 mm
01:18 AM 75.2°F24.0°C 73.4°F23.0°C 94% Calm Calm -- 29.97 in1014.9 mb 0.00 in0.0 mm 0.00 in/hr0.0 mm/hr 0.00 in0.0 mm
01:08 AM 75.2°F24.0°C 73.4°F23.0°C 94% Calm Calm -- 30.00 in1015.9 mb 0.00 in0.0 mm 0.00 in/hr0.0 mm/hr 0.00 in0.0 mm
12:58 AM 75.2°F24.0°C 73.4°F23.0°C 94% 0.1 mph SSW0.2 kmh SSW 2.9 mph4.7 kmh 30.00 in1015.9 mb 0.00 in0.0 mm 0.00 in/hr0.0 mm/hr 0.00 in0.0 mm
12:48 AM 75.2°F24.0°C 73.4°F23.0°C 94% Calm Calm 3.5 mph5.6 kmh 30.00 in1015.9 mb 0.00 in0.0 mm 0.00 in/hr0.0 mm/hr 0.00 in0.0 mm
12:38 AM 75.2°F24.0°C 73.3°F22.9°C 94% Calm Calm -- 29.97 in1014.9 mb 0.00 in0.0 mm 0.00 in/hr0.0 mm/hr 0.00 in0.0 mm
12:28 AM 75.2°F24.0°C 73.4°F23.0°C 94% 1.8 mph ESE2.9 kmh ESE 4.1 mph6.6 kmh 29.97 in1014.9 mb 0.00 in0.0 mm 0.00 in/hr0.0 mm/hr 0.00 in0.0 mm
12:18 AM 75.2°F24.0°C 73.4°F23.0°C 94% 3.1 mph SE5.0 kmh SE 3.5 mph5.6 kmh 29.97 in1014.9 mb 0.00 in0.0 mm 0.00 in/hr0.0 mm/hr 0.00 in0.0 mm
12:08 AM 75.4°F24.1°C 73.5°F23.1°C 94% 4.0 mph NE6.4 kmh NE 8.1 mph13.0 kmh 29.97 in1014.9 mb 0.00 in0.0 mm 0.00 in/hr0.0 mm/hr 0.00 in0.0 mm